Sheldon, Missouri
Current Conditions -  °F | °C
As of 6:15 AM on Saturday 25 Oct 2014 (Local Time) from KPTS Reporting Station
Clear Clear  
Wind Chill: 61°   Ceiling: Unl
Heat Index: 61°   Visibility: 7mi
Dew Point: 61°   Wind: 5mph
Humidity: 100%   Direction: 220°SW
Pressure: 30.05"   Gusts: NA
Location:  37.66°N, 94.29°W
Report Text: KPTS 251115Z AUTO 22004KT 7SM CLR 16/16 A3005 RMK AO2 T01610162
Loading
Personal Weather Stations






























Interactive Weather Map
Tropical Storm Tracking
New forecast layout! Learn more

10-Day Weather Forecast

Advertisements
Track Severe Weather on mobile